< < Back
Terminal Aerodrome Forecast


Current Version              Previous Versions:   1  2  3  4  5  6  7  8  9  

Terminal Aerodrome Forecast

308
FTUS42 KFFC 211138
TAFMCN
TAF
KMCN 211138Z 2112/2212 06007KT 1SM BR OVC002
      TEMPO 2112/2115 2SM OVC004
     FM211600 07005KT 4SM BR OVC007
     FM211800 08007KT P6SM OVC012
     FM220400 09005KT 6SM BR OVC007
     FM220900 07008KT 4SM BR OVC004=



Latest METAR

624
SAUS80 KWBC 211500 RRA
MTRMCN
METAR KMCN 211453Z 07008KT 3SM BR OVC008 09/09 A3020 RMK AO2 SLP226
T00940089 53003


USA.gov is the U.S. government's official web portal to all federal, state and local government web resources and services.